首页
METAR-TAF:

METAR-TAF

机场 :

賓格爾, 土耳其

纬度: 38-51-40N, 经度: 40-35-33E, 海拔: 1063米

当前天气观测

该预报发布于10小时和3分钟前的12:50 UTC
风速4节,风向西转西北
温度 1°C
湿度 69%
气压 1014 hPa
能見度: 8000
多云层高于3000英尺
阴天层高于8000英尺
小雪

METAR: LTCU 231250Z 29004KT 8000 -SN BKN030 OVC080 01/M04 Q1014

时间: 01:53 (22:53 UTC)

预报

该预报发布于9小时和13分钟前的13:40 UTC
预报有效从23日的 15点(UTC)到 23日的 24点(UTC)
风速8节,风向东转东北
能见度10公里或以上
散云层高于3500英尺
多云层高于10000英尺
短暂存在
从 23日的 15点(UTC)到 23日的 18点(UTC)
多云层高于3000英尺
阴天层高于8000英尺
小雪

TAF: LTCU 231340Z 2315/2324 06008KT 9999 SCT035 BKN100 TEMPO 2315/2318 -SN BKN030 OVC080

超过4000个机场的气象观测和天气预报(METAR&TAF报告)。

可查询的气象台以黄色和红色小点在地图上表示。

将鼠标移到小点上方,可查看气象台名称。

然后点击查看天气观测和预报。

如需切换地图:点击带黑十字的绿色按钮放大地图;点击带横线的绿色按钮缩小地图;或者点击绿色箭头查看邻近地区的地图。


METAR-TAF: